sensor_id;sensor_type;location;lat;lon;timestamp;pressure;altitude;pressure_sealevel;temperature;humidity
10466;BME280;5280;42.600;23.556;2023-12-20T00:00:07;93722.06;;;2.45;100.00
10466;BME280;5280;42.600;23.556;2023-12-20T00:02:34;93722.06;;;2.45;100.00
10466;BME280;5280;42.600;23.556;2023-12-20T00:05:01;93701.97;;;2.29;100.00
10466;BME280;5280;42.600;23.556;2023-12-20T00:07:28;93747.50;;;2.60;100.00
10466;BME280;5280;42.600;23.556;2023-12-20T00:09:57;93742.28;;;2.60;100.00
10466;BME280;5280;42.600;23.556;2023-12-20T00:12:24;93637.22;;;1.98;100.00
10466;BME280;5280;42.600;23.556;2023-12-20T00:14:51;93665.00;;;2.19;100.00
10466;BME280;5280;42.600;23.556;2023-12-20T00:17:18;93691.63;;;2.26;100.00
10466;BME280;5280;42.600;23.556;2023-12-20T00:19:45;93737.06;;;2.60;100.00
10466;BME280;5280;42.600;23.556;2023-12-20T00:22:12;93723.53;;;2.52;100.00
10466;BME280;5280;42.600;23.556;2023-12-20T00:24:39;93720.97;;;2.51;100.00
10466;BME280;5280;42.600;23.556;2023-12-20T00:27:08;93690.59;;;2.30;100.00
10466;BME280;5280;42.600;23.556;2023-12-20T00:29:38;93669.16;;;2.23;100.00
10466;BME280;5280;42.600;23.556;2023-12-20T00:32:07;93700.25;;;2.48;100.00
10466;BME280;5280;42.600;23.556;2023-12-20T00:39:37;93700.91;;;2.53;100.00
10466;BME280;5280;42.600;23.556;2023-12-20T00:42:20;93673.56;;;2.41;100.00
10466;BME280;5280;42.600;23.556;2023-12-20T00:45:06;93695.72;;;2.51;100.00
10466;BME280;5280;42.600;23.556;2023-12-20T00:47:33;93612.59;;;2.05;100.00
10466;BME280;5280;42.600;23.556;2023-12-20T00:52:29;93677.09;;;2.40;100.00
10466;BME280;5280;42.600;23.556;2023-12-20T00:54:56;93682.31;;;2.40;100.00
10466;BME280;5280;42.600;23.556;2023-12-20T00:57:25;93666.81;;;2.37;100.00
10466;BME280;5280;42.600;23.556;2023-12-20T00:59:52;93637.09;;;2.21;100.00
10466;BME280;5280;42.600;23.556;2023-12-20T01:02:22;93682.91;;;2.47;100.00
10466;BME280;5280;42.600;23.556;2023-12-20T01:04:49;93607.16;;;2.09;100.00
10466;BME280;5280;42.600;23.556;2023-12-20T01:07:16;93664.00;;;2.42;100.00
10466;BME280;5280;42.600;23.556;2023-12-20T01:09:44;93660.88;;;2.34;100.00
10466;BME280;5280;42.600;23.556;2023-12-20T01:12:13;93588.38;;;2.03;100.00
10466;BME280;5280;42.600;23.556;2023-12-20T01:14:45;93663.84;;;2.45;100.00
10466;BME280;5280;42.600;23.556;2023-12-20T01:17:12;93664.69;;;2.45;100.00
10466;BME280;5280;42.600;23.556;2023-12-20T01:19:39;93641.25;;;2.25;100.00
10466;BME280;5280;42.600;23.556;2023-12-20T01:22:06;93655.13;;;2.46;100.00
10466;BME280;5280;42.600;23.556;2023-12-20T01:24:34;93637.28;;;2.37;100.00
10466;BME280;5280;42.600;23.556;2023-12-20T01:27:00;93660.38;;;2.44;100.00
10466;BME280;5280;42.600;23.556;2023-12-20T01:29:27;93598.59;;;2.07;100.00
10466;BME280;5280;42.600;23.556;2023-12-20T01:31:56;93647.50;;;2.41;100.00
10466;BME280;5280;42.600;23.556;2023-12-20T01:34:23;93636.63;;;2.32;100.00
10466;BME280;5280;42.600;23.556;2023-12-20T01:36:50;93624.97;;;2.20;100.00
10466;BME280;5280;42.600;23.556;2023-12-20T01:39:17;93571.94;;;2.01;100.00
10466;BME280;5280;42.600;23.556;2023-12-20T01:41:44;93621.94;;;2.29;100.00
10466;BME280;5280;42.600;23.556;2023-12-20T01:44:11;93627.69;;;2.37;100.00
10466;BME280;5280;42.600;23.556;2023-12-20T01:46:38;93579.22;;;2.13;100.00
10466;BME280;5280;42.600;23.556;2023-12-20T01:49:07;93606.94;;;2.34;100.00
10466;BME280;5280;42.600;23.556;2023-12-20T01:51:35;93580.78;;;2.17;100.00
10466;BME280;5280;42.600;23.556;2023-12-20T01:54:06;93528.06;;;1.92;100.00
10466;BME280;5280;42.600;23.556;2023-12-20T01:56:33;93579.47;;;2.27;100.00
10466;BME280;5280;42.600;23.556;2023-12-20T01:59:01;93593.09;;;2.34;100.00
10466;BME280;5280;42.600;23.556;2023-12-20T02:01:33;93592.34;;;2.30;100.00
10466;BME280;5280;42.600;23.556;2023-12-20T02:04:03;93592.34;;;2.30;100.00
10466;BME280;5280;42.600;23.556;2023-12-20T02:06:35;93583.78;;;2.28;100.00
10466;BME280;5280;42.600;23.556;2023-12-20T02:09:03;93542.38;;;2.02;100.00
10466;BME280;5280;42.600;23.556;2023-12-20T02:11:30;93564.16;;;2.20;100.00
10466;BME280;5280;42.600;23.556;2023-12-20T02:13:59;93569.19;;;2.24;100.00
10466;BME280;5280;42.600;23.556;2023-12-20T02:16:27;93551.47;;;2.12;100.00
10466;BME280;5280;42.600;23.556;2023-12-20T02:18:54;93572.41;;;2.29;100.00
10466;BME280;5280;42.600;23.556;2023-12-20T02:21:31;93573.56;;;2.24;100.00
10466;BME280;5280;42.600;23.556;2023-12-20T02:23:59;93570.75;;;2.28;100.00
10466;BME280;5280;42.600;23.556;2023-12-20T02:26:26;93548.81;;;2.13;100.00
10466;BME280;5280;42.600;23.556;2023-12-20T02:28:56;93532.59;;;2.07;100.00
10466;BME280;5280;42.600;23.556;2023-12-20T02:31:23;93559.50;;;2.26;100.00
10466;BME280;5280;42.600;23.556;2023-12-20T02:33:50;93539.22;;;2.14;100.00
10466;BME280;5280;42.600;23.556;2023-12-20T02:36:17;93519.59;;;2.05;100.00
10466;BME280;5280;42.600;23.556;2023-12-20T02:38:46;93556.84;;;2.28;100.00
10466;BME280;5280;42.600;23.556;2023-12-20T02:41:13;93483.38;;;1.81;100.00
10466;BME280;5280;42.600;23.556;2023-12-20T02:43:42;93557.81;;;2.25;100.00
10466;BME280;5280;42.600;23.556;2023-12-20T02:46:09;93506.50;;;1.88;100.00
10466;BME280;5280;42.600;23.556;2023-12-20T02:48:36;93535.84;;;2.12;100.00
10466;BME280;5280;42.600;23.556;2023-12-20T02:51:03;93528.22;;;2.07;100.00
10466;BME280;5280;42.600;23.556;2023-12-20T02:53:30;93529.19;;;2.05;100.00
10466;BME280;5280;42.600;23.556;2023-12-20T02:55:59;93548.88;;;2.12;100.00
10466;BME280;5280;42.600;23.556;2023-12-20T02:58:26;93538.84;;;2.03;100.00
10466;BME280;5280;42.600;23.556;2023-12-20T03:00:53;93531.94;;;2.02;100.00
10466;BME280;5280;42.600;23.556;2023-12-20T03:03:20;93506.56;;;1.87;100.00
10466;BME280;5280;42.600;23.556;2023-12-20T03:05:52;93488.84;;;1.74;100.00
10466;BME280;5280;42.600;23.556;2023-12-20T03:08:19;93535.13;;;2.08;100.00
10466;BME280;5280;42.600;23.556;2023-12-20T03:10:46;93531.88;;;2.03;100.00
10466;BME280;5280;42.600;23.556;2023-12-20T03:13:14;93541.19;;;2.09;100.00
10466;BME280;5280;42.600;23.556;2023-12-20T03:15:42;93524.47;;;1.94;100.00
10466;BME280;5280;42.600;23.556;2023-12-20T03:18:12;93543.06;;;2.05;100.00
10466;BME280;5280;42.600;23.556;2023-12-20T03:20:39;93540.59;;;2.02;100.00
10466;BME280;5280;42.600;23.556;2023-12-20T03:23:06;93541.03;;;1.93;100.00
10466;BME280;5280;42.600;23.556;2023-12-20T03:25:33;93539.06;;;1.98;100.00
10466;BME280;5280;42.600;23.556;2023-12-20T03:28:00;93535.88;;;1.92;100.00
10466;BME280;5280;42.600;23.556;2023-12-20T03:30:29;93518.25;;;1.78;100.00
10466;BME280;5280;42.600;23.556;2023-12-20T03:32:56;93529.31;;;1.83;100.00
10466;BME280;5280;42.600;23.556;2023-12-20T03:35:23;93524.09;;;1.83;100.00
10466;BME280;5280;42.600;23.556;2023-12-20T03:37:50;93523.50;;;1.77;100.00
10466;BME280;5280;42.600;23.556;2023-12-20T03:40:17;93530.03;;;1.66;100.00
10466;BME280;5280;42.600;23.556;2023-12-20T03:42:44;93523.66;;;1.73;100.00
10466;BME280;5280;42.600;23.556;2023-12-20T03:45:11;93529.56;;;1.77;100.00
10466;BME280;5280;42.600;23.556;2023-12-20T03:47:40;93520.25;;;1.71;100.00
10466;BME280;5280;42.600;23.556;2023-12-20T03:50:07;93517.66;;;1.71;100.00
10466;BME280;5280;42.600;23.556;2023-12-20T03:52:34;93424.53;;;1.17;100.00
10466;BME280;5280;42.600;23.556;2023-12-20T03:55:03;93499.63;;;1.67;100.00
10466;BME280;5280;42.600;23.556;2023-12-20T03:57:30;93513.09;;;1.77;100.00
10466;BME280;5280;42.600;23.556;2023-12-20T03:59:57;93528.56;;;1.80;100.00
10466;BME280;5280;42.600;23.556;2023-12-20T04:02:27;93517.25;;;1.81;100.00
10466;BME280;5280;42.600;23.556;2023-12-20T04:04:55;93507.09;;;1.74;100.00
10466;BME280;5280;42.600;23.556;2023-12-20T04:07:22;93479.25;;;1.56;100.00
10466;BME280;5280;42.600;23.556;2023-12-20T04:09:49;93513.94;;;1.77;100.00
10466;BME280;5280;42.600;23.556;2023-12-20T04:12:18;93498.63;;;1.69;100.00
10466;BME280;5280;42.600;23.556;2023-12-20T04:14:45;93488.50;;;1.63;100.00
10466;BME280;5280;42.600;23.556;2023-12-20T04:17:12;93489.06;;;1.70;100.00
10466;BME280;5280;42.600;23.556;2023-12-20T04:19:41;93494.91;;;1.75;100.00
10466;BME280;5280;42.600;23.556;2023-12-20T04:22:09;93487.25;;;1.72;100.00
10466;BME280;5280;42.600;23.556;2023-12-20T04:24:36;93472.22;;;1.58;100.00
10466;BME280;5280;42.600;23.556;2023-12-20T04:27:04;93487.56;;;1.64;100.00
10466;BME280;5280;42.600;23.556;2023-12-20T04:29:31;93485.09;;;1.61;100.00
10466;BME280;5280;42.600;23.556;2023-12-20T04:32:00;93487.50;;;1.66;100.00
10466;BME280;5280;42.600;23.556;2023-12-20T04:34:27;93476.84;;;1.52;100.00
10466;BME280;5280;42.600;23.556;2023-12-20T04:36:54;93444.44;;;1.39;100.00
10466;BME280;5280;42.600;23.556;2023-12-20T04:39:22;93490.06;;;1.67;100.00
10466;BME280;5280;42.600;23.556;2023-12-20T04:41:49;93471.31;;;1.59;100.00
10466;BME280;5280;42.600;23.556;2023-12-20T04:44:16;93475.59;;;1.60;100.00
10466;BME280;5280;42.600;23.556;2023-12-20T04:46:43;93463.78;;;1.53;100.00
10466;BME280;5280;42.600;23.556;2023-12-20T04:49:10;93458.56;;;1.53;100.00
10466;BME280;5280;42.600;23.556;2023-12-20T04:51:37;93447.41;;;1.50;100.00
10466;BME280;5280;42.600;23.556;2023-12-20T04:54:04;93468.72;;;1.59;100.00
10466;BME280;5280;42.600;23.556;2023-12-20T04:56:33;93463.50;;;1.59;100.00
10466;BME280;5280;42.600;23.556;2023-12-20T04:59:00;93464.31;;;1.60;100.00
10466;BME280;5280;42.600;23.556;2023-12-20T05:01:32;93417.19;;;1.27;100.00
10466;BME280;5280;42.600;23.556;2023-12-20T05:03:59;93447.63;;;1.45;100.00
10466;BME280;5280;42.600;23.556;2023-12-20T05:06:26;93468.56;;;1.62;100.00
10466;BME280;5280;42.600;23.556;2023-12-20T05:08:53;93470.38;;;1.60;100.00
10466;BME280;5280;42.600;23.556;2023-12-20T05:11:20;93438.69;;;1.51;100.00
10466;BME280;5280;42.600;23.556;2023-12-20T05:13:49;93398.81;;;1.30;100.00
10466;BME280;5280;42.600;23.556;2023-12-20T05:16:16;93402.72;;;1.20;100.00
10466;BME280;5280;42.600;23.556;2023-12-20T05:18:43;93431.22;;;1.43;100.00
10466;BME280;5280;42.600;23.556;2023-12-20T05:21:10;93452.50;;;1.53;100.00
10466;BME280;5280;42.600;23.556;2023-12-20T05:23:37;93373.03;;;1.05;100.00
10466;BME280;5280;42.600;23.556;2023-12-20T05:26:04;93426.22;;;1.39;100.00
10466;BME280;5280;42.600;23.556;2023-12-20T05:28:31;93436.03;;;1.52;100.00
10466;BME280;5280;42.600;23.556;2023-12-20T05:31:02;93436.88;;;1.53;100.00
10466;BME280;5280;42.600;23.556;2023-12-20T05:33:29;93408.06;;;1.37;100.00
10466;BME280;5280;42.600;23.556;2023-12-20T05:35:56;93423.16;;;1.49;100.00
10466;BME280;5280;42.600;23.556;2023-12-20T05:38:23;93428.22;;;1.52;100.00
10466;BME280;5280;42.600;23.556;2023-12-20T05:40:50;93341.25;;;0.99;100.00
10466;BME280;5280;42.600;23.556;2023-12-20T05:43:17;93387.84;;;1.23;100.00
10466;BME280;5280;42.600;23.556;2023-12-20T05:45:45;93412.63;;;1.32;100.00
10466;BME280;5280;42.600;23.556;2023-12-20T05:48:13;93427.56;;;1.47;100.00
10466;BME280;5280;42.600;23.556;2023-12-20T05:50:40;93423.63;;;1.39;100.00
10466;BME280;5280;42.600;23.556;2023-12-20T05:53:08;93415.81;;;1.39;100.00
10466;BME280;5280;42.600;23.556;2023-12-20T05:55:34;93424.19;;;1.45;100.00
10466;BME280;5280;42.600;23.556;2023-12-20T05:58:02;93402.34;;;1.29;100.00
10466;BME280;5280;42.600;23.556;2023-12-20T06:00:30;93388.56;;;1.27;100.00
10466;BME280;5280;42.600;23.556;2023-12-20T06:02:57;93403.69;;;1.38;100.00
10466;BME280;5280;42.600;23.556;2023-12-20T06:05:25;93412.00;;;1.46;100.00
10466;BME280;5280;42.600;23.556;2023-12-20T06:08:11;93405.91;;;1.47;100.00
10466;BME280;5280;42.600;23.556;2023-12-20T06:10:41;93358.44;;;1.21;100.00
10466;BME280;5280;42.600;23.556;2023-12-20T06:13:10;93398.56;;;1.36;100.00
10466;BME280;5280;42.600;23.556;2023-12-20T06:15:38;93405.47;;;1.37;100.00
10466;BME280;5280;42.600;23.556;2023-12-20T06:18:06;93392.78;;;1.29;100.00
10466;BME280;5280;42.600;23.556;2023-12-20T06:20:35;93405.31;;;1.40;100.00
10466;BME280;5280;42.600;23.556;2023-12-20T06:23:02;93333.44;;;0.99;100.00
10466;BME280;5280;42.600;23.556;2023-12-20T06:25:29;93405.31;;;1.40;100.00
10466;BME280;5280;42.600;23.556;2023-12-20T06:27:56;93392.44;;;1.37;100.00
10466;BME280;5280;42.600;23.556;2023-12-20T06:30:23;93382.19;;;1.34;100.00
10466;BME280;5280;42.600;23.556;2023-12-20T06:32:54;93369.53;;;1.25;100.00
10466;BME280;5280;42.600;23.556;2023-12-20T06:35:23;93394.06;;;1.40;100.00
10466;BME280;5280;42.600;23.556;2023-12-20T06:37:54;93388.94;;;1.38;100.00
10466;BME280;5280;42.600;23.556;2023-12-20T06:40:21;93386.13;;;1.43;100.00
10466;BME280;5280;42.600;23.556;2023-12-20T06:42:48;93394.00;;;1.41;100.00
10466;BME280;5280;42.600;23.556;2023-12-20T06:45:15;93340.41;;;1.17;100.00
10466;BME280;5280;42.600;23.556;2023-12-20T06:47:42;93400.47;;;1.51;100.00
10466;BME280;5280;42.600;23.556;2023-12-20T06:50:09;93407.66;;;1.46;100.00
10466;BME280;5280;42.600;23.556;2023-12-20T06:52:36;93384.38;;;1.43;100.00
10466;BME280;5280;42.600;23.556;2023-12-20T06:55:05;93395.22;;;1.53;100.00
10466;BME280;5280;42.600;23.556;2023-12-20T06:57:32;93331.00;;;1.14;100.00
10466;BME280;5280;42.600;23.556;2023-12-20T07:00:02;93377.63;;;1.39;100.00
10466;BME280;5280;42.600;23.556;2023-12-20T07:02:30;93373.31;;;1.38;100.00
10466;BME280;5280;42.600;23.556;2023-12-20T07:05:19;93342.69;;;1.24;100.00
10466;BME280;5280;42.600;23.556;2023-12-20T07:07:47;93334.25;;;1.19;100.00
10466;BME280;5280;42.600;23.556;2023-12-20T07:10:16;93373.94;;;1.43;100.00
10466;BME280;5280;42.600;23.556;2023-12-20T07:12:43;93380.34;;;1.55;100.00
10466;BME280;5280;42.600;23.556;2023-12-20T07:15:10;93343.41;;;1.28;100.00
10466;BME280;5280;42.600;23.556;2023-12-20T07:17:37;93324.53;;;1.23;100.00
10466;BME280;5280;42.600;23.556;2023-12-20T07:20:11;93385.50;;;1.56;100.00
10466;BME280;5280;42.600;23.556;2023-12-20T07:22:38;93363.53;;;1.43;100.00
10466;BME280;5280;42.600;23.556;2023-12-20T07:25:06;93373.47;;;1.54;100.00
10466;BME280;5280;42.600;23.556;2023-12-20T07:27:35;93372.53;;;1.55;100.00
10466;BME280;5280;42.600;23.556;2023-12-20T07:30:02;93362.53;;;1.46;100.00
10466;BME280;5280;42.600;23.556;2023-12-20T07:32:29;93322.63;;;1.26;100.00
10466;BME280;5280;42.600;23.556;2023-12-20T07:35:10;93370.94;;;1.52;100.00
10466;BME280;5280;42.600;23.556;2023-12-20T07:37:55;93306.78;;;1.12;100.00
10466;BME280;5280;42.600;23.556;2023-12-20T07:40:24;93367.22;;;1.58;100.00
10466;BME280;5280;42.600;23.556;2023-12-20T07:42:53;93341.00;;;1.42;100.00
10466;BME280;5280;42.600;23.556;2023-12-20T07:45:20;93355.72;;;1.43;100.00
10466;BME280;5280;42.600;23.556;2023-12-20T07:47:46;93303.66;;;1.24;100.00
10466;BME280;5280;42.600;23.556;2023-12-20T07:50:16;93340.88;;;1.45;100.00
10466;BME280;5280;42.600;23.556;2023-12-20T07:52:43;93315.41;;;1.33;100.00
10466;BME280;5280;42.600;23.556;2023-12-20T07:55:10;93361.09;;;1.59;100.00
10466;BME280;5280;42.600;23.556;2023-12-20T07:57:38;93357.00;;;1.53;100.00
10466;BME280;5280;42.600;23.556;2023-12-20T08:00:07;93352.69;;;1.52;100.00
10466;BME280;5280;42.600;23.556;2023-12-20T08:02:40;93372.34;;;1.59;100.00
10466;BME280;5280;42.600;23.556;2023-12-20T08:05:15;93352.06;;;1.47;100.00
10466;BME280;5280;42.600;23.556;2023-12-20T08:07:42;93355.25;;;1.54;100.00
10466;BME280;5280;42.600;23.556;2023-12-20T08:10:09;93351.91;;;1.50;100.00
10466;BME280;5280;42.600;23.556;2023-12-20T08:15:34;93312.22;;;1.26;100.00
10466;BME280;5280;42.600;23.556;2023-12-20T08:18:03;93225.19;;;0.76;100.00
10466;BME280;5280;42.600;23.556;2023-12-20T08:20:30;93333.91;;;1.46;100.00
10466;BME280;5280;42.600;23.556;2023-12-20T08:22:57;93266.69;;;0.98;100.00
10466;BME280;5280;42.600;23.556;2023-12-20T08:25:24;93330.59;;;1.42;100.00
10466;BME280;5280;42.600;23.556;2023-12-20T08:27:51;93340.75;;;1.48;100.00
10466;BME280;5280;42.600;23.556;2023-12-20T08:30:18;93336.38;;;1.49;100.00
10466;BME280;5280;42.600;23.556;2023-12-20T08:32:48;93328.41;;;1.52;100.00
10466;BME280;5280;42.600;23.556;2023-12-20T08:35:16;93331.72;;;1.55;100.00
10466;BME280;5280;42.600;23.556;2023-12-20T08:37:47;93271.78;;;1.19;100.00
10466;BME280;5280;42.600;23.556;2023-12-20T08:40:14;93279.25;;;1.27;100.00
10466;BME280;5280;42.600;23.556;2023-12-20T08:42:41;93273.25;;;1.25;100.00
10466;BME280;5280;42.600;23.556;2023-12-20T08:45:08;93309.41;;;1.50;100.00
10466;BME280;5280;42.600;23.556;2023-12-20T08:47:35;93284.81;;;1.38;100.00
10466;BME280;5280;42.600;23.556;2023-12-20T08:50:05;93300.06;;;1.46;100.00
10466;BME280;5280;42.600;23.556;2023-12-20T08:52:32;93300.78;;;1.49;100.00
10466;BME280;5280;42.600;23.556;2023-12-20T08:54:59;93307.81;;;1.47;100.00
10466;BME280;5280;42.600;23.556;2023-12-20T08:57:26;93281.41;;;1.36;100.00
10466;BME280;5280;42.600;23.556;2023-12-20T08:59:53;93248.72;;;1.12;100.00
10466;BME280;5280;42.600;23.556;2023-12-20T09:02:21;93237.38;;;1.13;100.00
10466;BME280;5280;42.600;23.556;2023-12-20T09:04:48;93235.53;;;1.15;100.00
10466;BME280;5280;42.600;23.556;2023-12-20T09:07:24;93242.78;;;1.27;100.00
10466;BME280;5280;42.600;23.556;2023-12-20T09:09:52;93213.75;;;1.17;100.00
10466;BME280;5280;42.600;23.556;2023-12-20T09:12:19;93267.47;;;1.56;100.00
10466;BME280;5280;42.600;23.556;2023-12-20T09:14:47;93237.56;;;1.46;100.00
10466;BME280;5280;42.600;23.556;2023-12-20T09:17:14;93241.94;;;1.45;100.00
10466;BME280;5280;42.600;23.556;2023-12-20T09:19:42;93255.56;;;1.50;100.00
10466;BME280;5280;42.600;23.556;2023-12-20T09:22:09;93236.38;;;1.53;100.00
10466;BME280;5280;42.600;23.556;2023-12-20T09:24:38;93218.28;;;1.50;100.00
10466;BME280;5280;42.600;23.556;2023-12-20T09:27:05;93228.81;;;1.65;100.00
10466;BME280;5280;42.600;23.556;2023-12-20T09:29:32;93233.56;;;1.74;100.00
10466;BME280;5280;42.600;23.556;2023-12-20T09:31:59;93220.34;;;1.79;100.00
10466;BME280;5280;42.600;23.556;2023-12-20T09:34:26;93208.25;;;1.78;100.00
10466;BME280;5280;42.600;23.556;2023-12-20T09:36:53;93216.28;;;1.91;100.00
10466;BME280;5280;42.600;23.556;2023-12-20T09:39:21;93209.09;;;1.96;100.00
10466;BME280;5280;42.600;23.556;2023-12-20T09:41:59;93196.69;;;2.01;100.00
10466;BME280;5280;42.600;23.556;2023-12-20T09:44:27;93195.94;;;1.99;100.00
10466;BME280;5280;42.600;23.556;2023-12-20T09:46:55;93198.13;;;2.06;100.00
10466;BME280;5280;42.600;23.556;2023-12-20T09:49:22;93180.19;;;2.00;100.00
10466;BME280;5280;42.600;23.556;2023-12-20T09:51:50;93135.00;;;1.84;100.00
10466;BME280;5280;42.600;23.556;2023-12-20T09:54:18;93139.66;;;1.95;100.00
10466;BME280;5280;42.600;23.556;2023-12-20T09:56:54;93172.16;;;2.22;100.00
10466;BME280;5280;42.600;23.556;2023-12-20T09:59:21;93165.63;;;2.31;100.00
10466;BME280;5280;42.600;23.556;2023-12-20T10:01:48;93165.47;;;2.34;100.00
10466;BME280;5280;42.600;23.556;2023-12-20T10:04:15;93168.34;;;2.45;100.00
10466;BME280;5280;42.600;23.556;2023-12-20T10:06:43;93155.84;;;2.51;100.00
10466;BME280;5280;42.600;23.556;2023-12-20T10:09:10;93118.13;;;2.41;100.00
10466;BME280;5280;42.600;23.556;2023-12-20T10:11:38;93144.63;;;2.49;100.00
10466;BME280;5280;42.600;23.556;2023-12-20T10:14:12;93139.06;;;2.73;100.00
10466;BME280;5280;42.600;23.556;2023-12-20T10:16:41;93129.97;;;2.80;100.00
10466;BME280;5280;42.600;23.556;2023-12-20T10:19:08;93126.13;;;2.87;100.00
10466;BME280;5280;42.600;23.556;2023-12-20T10:21:35;93110.13;;;2.77;100.00
10466;BME280;5280;42.600;23.556;2023-12-20T10:24:01;93071.47;;;2.52;100.00
10466;BME280;5280;42.600;23.556;2023-12-20T10:26:28;93122.34;;;2.92;100.00
10466;BME280;5280;42.600;23.556;2023-12-20T10:28:56;93120.81;;;2.88;100.00
10466;BME280;5280;42.600;23.556;2023-12-20T10:31:32;93124.16;;;2.90;100.00
10466;BME280;5280;42.600;23.556;2023-12-20T10:34:00;93103.28;;;2.75;100.00
10466;BME280;5280;42.600;23.556;2023-12-20T10:36:29;93129.50;;;2.89;100.00
10466;BME280;5280;42.600;23.556;2023-12-20T10:38:57;93110.03;;;2.79;100.00
10466;BME280;5280;42.600;23.556;2023-12-20T10:41:25;93078.03;;;2.59;100.00
10466;BME280;5280;42.600;23.556;2023-12-20T10:43:56;93097.22;;;2.74;100.00
10466;BME280;5280;42.600;23.556;2023-12-20T10:46:24;93105.16;;;2.88;100.00
10466;BME280;5280;42.600;23.556;2023-12-20T10:48:55;93110.38;;;2.88;100.00
10466;BME280;5280;42.600;23.556;2023-12-20T10:51:22;93075.53;;;2.74;100.00
10466;BME280;5280;42.600;23.556;2023-12-20T10:53:52;93071.81;;;2.78;100.00
10466;BME280;5280;42.600;23.556;2023-12-20T10:56:20;93056.81;;;2.66;100.00
10466;BME280;5280;42.600;23.556;2023-12-20T10:58:49;93070.13;;;2.77;100.00
10466;BME280;5280;42.600;23.556;2023-12-20T11:01:18;93058.19;;;2.73;100.00
10466;BME280;5280;42.600;23.556;2023-12-20T11:03:49;93060.88;;;2.71;100.00
10466;BME280;5280;42.600;23.556;2023-12-20T11:06:26;93061.22;;;2.81;100.00
10466;BME280;5280;42.600;23.556;2023-12-20T11:09:03;93052.53;;;2.80;100.00
10466;BME280;5280;42.600;23.556;2023-12-20T11:11:38;93049.25;;;2.77;100.00
10466;BME280;5280;42.600;23.556;2023-12-20T11:14:15;93033.78;;;2.74;100.00
10466;BME280;5280;42.600;23.556;2023-12-20T11:16:43;93041.69;;;2.88;100.00
10466;BME280;5280;42.600;23.556;2023-12-20T11:19:11;92977.59;;;2.52;100.00
10466;BME280;5280;42.600;23.556;2023-12-20T11:21:41;93039.81;;;2.90;100.00
10466;BME280;5280;42.600;23.556;2023-12-20T11:24:09;93035.09;;;2.96;100.00
10466;BME280;5280;42.600;23.556;2023-12-20T11:26:36;93017.94;;;2.92;100.00
10466;BME280;5280;42.600;23.556;2023-12-20T11:29:30;92971.34;;;2.71;100.00
10466;BME280;5280;42.600;23.556;2023-12-20T11:31:57;93011.16;;;3.04;100.00
10466;BME280;5280;42.600;23.556;2023-12-20T11:34:27;92992.31;;;2.99;100.00
10466;BME280;5280;42.600;23.556;2023-12-20T11:36:59;92991.06;;;3.06;100.00
10466;BME280;5280;42.600;23.556;2023-12-20T11:39:28;93000.56;;;3.07;100.00
10466;BME280;5280;42.600;23.556;2023-12-20T11:41:57;92990.28;;;3.04;100.00
10466;BME280;5280;42.600;23.556;2023-12-20T11:44:30;92971.28;;;3.02;100.00
10466;BME280;5280;42.600;23.556;2023-12-20T11:46:58;92970.25;;;3.04;100.00
10466;BME280;5280;42.600;23.556;2023-12-20T11:49:28;92990.38;;;3.18;100.00
10466;BME280;5280;42.600;23.556;2023-12-20T11:51:56;92975.97;;;3.11;100.00
10466;BME280;5280;42.600;23.556;2023-12-20T11:54:24;92978.81;;;3.22;100.00
10466;BME280;5280;42.600;23.556;2023-12-20T11:56:51;92972.41;;;3.28;100.00
10466;BME280;5280;42.600;23.556;2023-12-20T11:59:18;92969.78;;;3.28;100.00
10466;BME280;5280;42.600;23.556;2023-12-20T12:01:50;92952.94;;;3.33;100.00
10466;BME280;5280;42.600;23.556;2023-12-20T12:04:17;92948.63;;;3.32;100.00
10466;BME280;5280;42.600;23.556;2023-12-20T12:06:45;92950.31;;;3.33;100.00
10466;BME280;5280;42.600;23.556;2023-12-20T12:09:13;92955.78;;;3.29;100.00
10466;BME280;5280;42.600;23.556;2023-12-20T12:11:42;92904.00;;;3.07;100.00
10466;BME280;5280;42.600;23.556;2023-12-20T12:14:09;92944.59;;;3.27;100.00
10466;BME280;5280;42.600;23.556;2023-12-20T12:16:36;92926.59;;;3.22;100.00
10466;BME280;5280;42.600;23.556;2023-12-20T12:19:03;92868.44;;;2.90;100.00
10466;BME280;5280;42.600;23.556;2023-12-20T12:21:33;92929.03;;;3.25;100.00
10466;BME280;5280;42.600;23.556;2023-12-20T12:24:07;92940.03;;;3.30;100.00
10466;BME280;5280;42.600;23.556;2023-12-20T12:26:34;92920.47;;;3.23;100.00
10466;BME280;5280;42.600;23.556;2023-12-20T12:29:02;92869.19;;;2.92;100.00
10466;BME280;5280;42.600;23.556;2023-12-20T12:31:30;92919.22;;;3.29;100.00
10466;BME280;5280;42.600;23.556;2023-12-20T12:33:57;92907.00;;;3.29;100.00
10466;BME280;5280;42.600;23.556;2023-12-20T12:36:26;92902.91;;;3.25;100.00
10466;BME280;5280;42.600;23.556;2023-12-20T12:38:56;92901.06;;;3.27;100.00
10466;BME280;5280;42.600;23.556;2023-12-20T12:41:23;92896.56;;;3.29;100.00
10466;BME280;5280;42.600;23.556;2023-12-20T12:43:52;92896.56;;;3.29;100.00
10466;BME280;5280;42.600;23.556;2023-12-20T12:46:21;92894.63;;;3.33;100.00
10466;BME280;5280;42.600;23.556;2023-12-20T12:48:48;92851.44;;;3.13;100.00
10466;BME280;5280;42.600;23.556;2023-12-20T12:51:15;92884.34;;;3.30;100.00
10466;BME280;5280;42.600;23.556;2023-12-20T12:53:42;92870.16;;;3.20;100.00
10466;BME280;5280;42.600;23.556;2023-12-20T12:56:09;92880.25;;;3.26;100.00
10466;BME280;5280;42.600;23.556;2023-12-20T12:58:36;92891.00;;;3.35;100.00
10466;BME280;5280;42.600;23.556;2023-12-20T13:01:04;92848.44;;;3.05;100.00
10466;BME280;5280;42.600;23.556;2023-12-20T13:03:32;92901.44;;;3.35;100.00
10466;BME280;5280;42.600;23.556;2023-12-20T13:05:59;92887.72;;;3.32;100.00
10466;BME280;5280;42.600;23.556;2023-12-20T13:08:26;92822.31;;;2.91;100.00
10466;BME280;5280;42.600;23.556;2023-12-20T13:10:54;92903.59;;;3.43;100.00
10466;BME280;5280;42.600;23.556;2023-12-20T13:13:23;92882.22;;;3.36;100.00
10466;BME280;5280;42.600;23.556;2023-12-20T13:15:50;92894.38;;;3.37;100.00